Time;durP1;ratioP1;P1;durP2;ratioP2;P2;SDS_P1;SDS_P2;PMS_P1;PMS_P2;Temp;Humidity;BMP_temperature;BMP_pressure;BME280_temperature;BME280_humidity;BME280_pressure;Samples;Min_cycle;Max_cycle;Signal;HPM_P1;HPM_P2
2021/05/06 00:33:14;;;;;;;29.70;22.40;;;3.80;99.90;;;;;;5011279;28;20739;-66
2021/05/06 00:35:40;;;;;;;37.43;22.67;;;3.80;99.90;;;;;;5018783;28;20207;-65
2021/05/06 00:38:11;;;;;;;35.43;23.47;;;3.70;99.90;;;;;;5030874;28;20175;-65
2021/05/06 00:41:10;;;;;;;31.33;23.10;;;3.60;99.90;;;;;;5022594;28;20177;-65
2021/05/06 00:46:23;;;;;;;31.00;23.63;;;3.50;99.90;;;;;;5021095;28;20269;-65
2021/05/06 00:54:10;;;;;;;32.93;22.10;;;3.50;99.90;;;;;;5016276;28;20268;-64
2021/05/06 00:57:17;;;;;;;29.40;21.20;;;3.40;99.90;;;;;;5031504;28;20179;-65
2021/05/06 01:05:06;;;;;;;31.87;22.03;;;3.40;99.90;;;;;;5014798;28;20207;-65
2021/05/06 01:10:04;;;;;;;29.93;22.37;;;3.30;99.90;;;;;;4994560;28;20200;-65
2021/05/06 01:12:30;;;;;;;23.93;19.80;;;3.30;99.90;;;;;;4994895;28;20203;-66
2021/05/06 01:14:55;;;;;;;27.63;20.27;;;3.30;99.90;;;;;;5009705;28;20685;-65
2021/05/06 01:17:21;;;;;;;27.10;20.73;;;3.20;99.90;;;;;;5032801;28;20179;-65
2021/05/06 01:19:47;;;;;;;31.70;21.50;;;3.20;99.90;;;;;;5033744;28;20703;-64
2021/05/06 01:22:12;;;;;;;39.67;22.33;;;3.20;99.90;;;;;;5015497;28;20642;-65
2021/05/06 01:24:38;;;;;;;34.17;23.23;;;3.20;99.90;;;;;;5014212;28;20192;-65
2021/05/06 01:27:13;;;;;;;30.37;21.27;;;3.20;99.90;;;;;;5030024;28;20233;-65
2021/05/06 01:32:20;;;;;;;31.33;20.47;;;3.10;99.90;;;;;;5016858;28;20523;-64
2021/05/06 01:34:52;;;;;;;29.90;22.07;;;3.10;99.90;;;;;;5014070;28;20188;-65
2021/05/06 01:37:51;;;;;;;34.40;21.97;;;3.10;99.90;;;;;;5030727;28;20325;-64
2021/05/06 01:42:54;;;;;;;34.97;22.53;;;3.20;99.90;;;;;;5005153;28;20180;-65
2021/05/06 01:59:25;;;;;;;25.70;16.80;;;3.30;99.90;;;;;;5032978;28;20696;-66
2021/05/06 02:01:50;;;;;;;25.73;16.87;;;3.30;99.90;;;;;;5018919;28;20224;-65
2021/05/06 02:04:16;;;;;;;24.30;17.83;;;3.30;99.90;;;;;;5013333;28;20789;-65
2021/05/06 02:06:41;;;;;;;23.33;17.90;;;3.20;99.90;;;;;;5025339;28;20664;-65
2021/05/06 02:09:07;;;;;;;22.97;16.17;;;3.30;99.90;;;;;;5032784;28;20207;-65
2021/05/06 02:11:32;;;;;;;21.47;16.47;;;3.30;99.90;;;;;;5022130;28;20661;-65
2021/05/06 02:13:58;;;;;;;19.33;16.20;;;3.30;99.90;;;;;;5013168;28;20234;-65
2021/05/06 02:16:36;;;;;;;19.50;14.10;;;3.40;99.90;;;;;;5021311;28;20202;-65
2021/05/06 02:19:03;;;;;;;19.70;13.07;;;3.40;99.90;;;;;;5018530;28;20172;-65
2021/05/06 02:21:30;;;;;;;17.03;12.67;;;3.50;99.90;;;;;;5021271;28;20203;-66
2021/05/06 02:23:55;;;;;;;13.80;12.30;;;3.60;99.90;;;;;;5032656;28;20183;-65
2021/05/06 02:26:21;;;;;;;15.27;11.67;;;3.70;99.90;;;;;;5029014;28;20199;-64
2021/05/06 02:28:46;;;;;;;17.97;11.13;;;3.80;99.90;;;;;;5012480;28;20581;-64
2021/05/06 02:31:14;;;;;;;16.67;11.00;;;3.90;99.90;;;;;;5018033;28;20175;-65
2021/05/06 02:33:41;;;;;;;15.83;10.60;;;4.00;99.90;;;;;;5032889;28;20649;-66
2021/05/06 02:36:08;;;;;;;18.77;10.83;;;4.00;99.90;;;;;;5027334;28;20246;-64
2021/05/06 02:38:33;;;;;;;16.37;10.63;;;4.00;99.90;;;;;;5012372;28;20176;-66
2021/05/06 02:40:59;;;;;;;12.80;11.20;;;4.10;99.90;;;;;;5015110;28;20254;-65
2021/05/06 02:43:25;;;;;;;16.13;10.67;;;4.10;99.90;;;;;;5024788;28;20255;-65
2021/05/06 02:45:50;;;;;;;17.00;10.90;;;4.20;99.90;;;;;;5013780;28;20235;-65
2021/05/06 02:48:16;;;;;;;12.07;10.23;;;4.30;99.90;;;;;;5031861;28;20612;-65
2021/05/06 02:50:46;;;;;;;15.33;10.37;;;4.40;99.90;;;;;;5031815;28;20171;-65
2021/05/06 02:53:16;;;;;;;24.80;11.20;;;4.50;99.90;;;;;;4993013;28;20234;-65
2021/05/06 03:03:47;;;;;;;12.13;9.43;;;4.70;99.90;;;;;;5012383;28;20238;-65
2021/05/06 03:06:19;;;;;;;15.80;9.80;;;4.80;99.90;;;;;;5015245;28;20188;-65
2021/05/06 03:08:47;;;;;;;13.83;8.87;;;4.80;99.90;;;;;;5031792;28;20195;-65
2021/05/06 03:24:32;;;;;;;11.80;7.13;;;4.80;99.90;;;;;;5012081;28;20666;-66
2021/05/06 03:26:59;;;;;;;9.77;7.17;;;4.70;99.90;;;;;;5019733;28;20182;-65
2021/05/06 03:48:26;;;;;;;8.63;5.93;;;5.00;99.90;;;;;;5020331;28;20711;-65
2021/05/06 04:27:28;;;;;;;10.30;7.40;;;5.20;99.90;;;;;;5031414;28;20186;-65
2021/05/06 04:30:22;;;;;;;7.57;6.87;;;5.20;99.90;;;;;;5028311;28;20334;-65
2021/05/06 04:35:38;;;;;;;10.27;6.63;;;5.30;99.90;;;;;;5022221;28;20252;-65
2021/05/06 04:38:09;;;;;;;7.57;6.17;;;5.30;99.90;;;;;;5034914;28;20559;-65
2021/05/06 04:54:15;;;;;;;8.47;5.60;;;5.60;99.90;;;;;;5016979;28;20187;-65
2021/05/06 04:56:51;;;;;;;5.30;4.57;;;5.70;99.90;;;;;;5029944;28;20175;-64
2021/05/06 05:04:44;;;;;;;6.77;4.97;;;6.10;99.90;;;;;;5014510;28;20379;-65
2021/05/06 05:17:55;;;;;;;10.77;5.67;;;6.40;99.90;;;;;;5021551;28;20554;-67
2021/05/06 05:25:41;;;;;;;7.27;5.50;;;6.50;99.90;;;;;;5016080;28;20192;-66
2021/05/06 05:28:08;;;;;;;10.90;5.70;;;6.60;99.90;;;;;;5033501;28;20172;-66
2021/05/06 05:30:37;;;;;;;9.00;6.37;;;6.60;99.90;;;;;;5029769;28;20636;-67
2021/05/06 05:33:08;;;;;;;7.60;5.70;;;6.60;99.90;;;;;;5013782;28;20247;-66
2021/05/06 05:38:12;;;;;;;6.83;6.07;;;6.70;99.90;;;;;;5033796;28;20172;-66
2021/05/06 05:56:45;;;;;;;7.00;5.47;;;7.70;99.90;;;;;;5022120;28;20191;-67
2021/05/06 05:59:11;;;;;;;6.33;4.60;;;7.70;99.90;;;;;;5014029;28;20188;-66
2021/05/06 06:01:36;;;;;;;7.70;5.73;;;7.80;99.90;;;;;;5023082;28;20402;-66
2021/05/06 06:04:02;;;;;;;9.07;5.23;;;7.80;99.90;;;;;;5033210;28;20651;-67
2021/05/06 06:06:28;;;;;;;5.70;5.10;;;7.90;99.90;;;;;;5024703;28;20253;-66
2021/05/06 06:08:54;;;;;;;9.00;5.20;;;8.00;99.90;;;;;;5012895;28;20214;-67
2021/05/06 06:11:20;;;;;;;5.43;4.93;;;8.10;99.90;;;;;;5018789;28;20209;-66
2021/05/06 06:13:48;;;;;;;6.20;5.27;;;8.00;99.90;;;;;;5031872;28;20179;-65
2021/05/06 06:16:23;;;;;;;6.30;5.43;;;8.10;99.90;;;;;;5027044;28;20741;-65
2021/05/06 06:18:53;;;;;;;6.57;5.97;;;8.20;99.90;;;;;;5012898;28;20172;-66
2021/05/06 06:21:25;;;;;;;7.87;6.10;;;8.40;99.90;;;;;;5018328;28;20179;-64
2021/05/06 06:23:52;;;;;;;8.27;6.07;;;8.50;99.90;;;;;;5032986;28;20179;-65
2021/05/06 06:26:17;;;;;;;7.20;6.20;;;8.70;99.90;;;;;;5027570;28;20747;-65
2021/05/06 06:28:45;;;;;;;6.10;5.50;;;8.90;99.90;;;;;;5012988;28;20196;-65
2021/05/06 06:33:40;;;;;;;7.73;6.93;;;9.50;99.90;;;;;;5031212;28;20179;-64
2021/05/06 06:36:06;;;;;;;6.40;5.80;;;9.60;99.90;;;;;;5029323;28;20239;-64
2021/05/06 06:38:32;;;;;;;8.73;6.40;;;9.70;99.90;;;;;;5012518;28;20203;-65
2021/05/06 06:40:59;;;;;;;6.63;4.93;;;9.70;99.90;;;;;;5012653;28;20207;-64
2021/05/06 06:43:24;;;;;;;9.07;5.67;;;9.70;99.90;;;;;;4993033;28;20233;-65
2021/05/06 06:45:50;;;;;;;8.43;6.17;;;9.70;99.90;;;;;;4992678;28;20654;-66
2021/05/06 06:48:17;;;;;;;6.57;5.00;;;9.80;99.90;;;;;;5024929;28;20578;-65
2021/05/06 06:50:43;;;;;;;5.70;4.80;;;10.00;99.90;;;;;;5017261;28;20215;-66
2021/05/06 06:53:09;;;;;;;8.33;5.30;;;10.10;99.90;;;;;;5011712;28;20204;-66
2021/05/06 06:55:35;;;;;;;6.73;4.37;;;10.10;99.90;;;;;;5024027;28;20210;-65
2021/05/06 06:58:13;;;;;;;5.43;4.53;;;10.20;99.90;;;;;;5032253;28;20176;-65
2021/05/06 07:00:43;;;;;;;8.33;4.60;;;10.30;99.90;;;;;;5019121;28;20321;-65
2021/05/06 07:03:09;;;;;;;8.90;4.47;;;10.20;99.90;;;;;;5011970;28;20183;-67
2021/05/06 07:05:35;;;;;;;5.40;4.70;;;10.40;99.90;;;;;;5014820;28;20212;-67
2021/05/06 07:08:36;;;;;;;10.57;9.77;;;10.50;99.90;;;;;;5011937;28;20183;-66
2021/05/06 07:11:04;;;;;;;6.60;4.30;;;10.50;99.90;;;;;;5023164;28;20202;-66
2021/05/06 07:13:30;;;;;;;5.63;4.40;;;10.70;99.90;;;;;;5031653;28;20175;-64
2021/05/06 07:16:01;;;;;;;4.37;3.97;;;11.30;99.90;;;;;;5017535;28;20204;-64
2021/05/06 07:18:28;;;;;;;6.00;4.53;;;11.60;99.90;;;;;;5011972;28;20183;-65
2021/05/06 07:20:55;;;;;;;6.03;4.57;;;11.60;99.90;;;;;;5023278;28;20179;-63
2021/05/06 07:23:22;;;;;;;4.70;4.20;;;11.70;99.90;;;;;;5031767;28;20174;-63
2021/05/06 07:25:50;;;;;;;6.87;4.37;;;11.70;99.90;;;;;;5018728;28;20200;-63
2021/05/06 07:28:19;;;;;;;6.67;4.27;;;11.90;99.90;;;;;;5011826;28;20590;-64
2021/05/06 07:30:46;;;;;;;6.60;4.03;;;12.30;99.90;;;;;;5022779;28;20176;-63
2021/05/06 07:33:13;;;;;;;4.03;3.73;;;12.40;99.90;;;;;;5031305;28;20175;-65
2021/05/06 07:35:40;;;;;;;4.73;4.23;;;11.70;99.90;;;;;;5021422;28;20215;-64
2021/05/06 07:38:06;;;;;;;4.67;4.13;;;11.50;99.90;;;;;;5011778;28;20199;-64
2021/05/06 07:40:33;;;;;;;6.17;4.37;;;11.50;99.90;;;;;;5018630;28;20523;-64
2021/05/06 07:42:59;;;;;;;13.20;7.07;;;11.60;99.90;;;;;;5031014;28;20163;-64
2021/05/06 07:45:25;;;;;;;4.83;3.90;;;11.80;99.90;;;;;;5023388;28;20686;-63
2021/05/06 07:47:51;;;;;;;5.07;4.10;;;12.00;99.90;;;;;;5011773;28;20179;-63
2021/05/06 07:50:18;;;;;;;7.73;4.70;;;11.70;99.90;;;;;;5016872;28;20206;-64
2021/05/06 07:52:46;;;;;;;4.47;4.03;;;11.30;99.90;;;;;;5020920;28;20519;-64
2021/05/06 07:55:13;;;;;;;6.23;5.60;;;11.30;99.90;;;;;;5015805;28;21002;-64
2021/05/06 07:57:39;;;;;;;6.33;4.70;;;11.30;99.90;;;;;;5031362;28;20558;-64
2021/05/06 08:00:14;;;;;;;5.57;3.90;;;11.70;99.90;;;;;;5027817;28;20232;-64
2021/05/06 08:02:43;;;;;;;6.70;4.17;;;12.20;99.90;;;;;;5018632;28;20175;-64
2021/05/06 08:05:09;;;;;;;6.10;3.80;;;12.60;99.90;;;;;;5029371;28;20673;-64
2021/05/06 08:07:35;;;;;;;4.20;3.83;;;12.80;99.90;;;;;;5015624;28;20746;-63
2021/05/06 08:10:01;;;;;;;4.47;3.73;;;12.90;99.90;;;;;;5017072;28;20199;-64
2021/05/06 08:12:27;;;;;;;5.10;3.80;;;13.10;99.90;;;;;;5035169;28;20551;-65
2021/05/06 08:14:54;;;;;;;6.13;4.00;;;13.30;99.90;;;;;;5033559;28;20183;-63
2021/05/06 08:17:20;;;;;;;4.50;4.10;;;13.70;99.90;;;;;;5015478;28;20303;-64
2021/05/06 08:19:47;;;;;;;4.30;3.90;;;14.00;99.90;;;;;;5015074;28;20251;-63
2021/05/06 08:22:14;;;;;;;5.13;4.60;;;13.60;99.90;;;;;;5029404;28;20796;-61
2021/05/06 08:24:39;;;;;;;4.07;3.63;;;13.40;99.90;;;;;;5018339;28;20227;-64
2021/05/06 08:27:05;;;;;;;7.30;4.57;;;13.30;99.90;;;;;;5022544;28;20266;-63
2021/05/06 08:29:31;;;;;;;5.50;4.43;;;13.20;99.90;;;;;;5027332;28;20207;-64
2021/05/06 08:31:56;;;;;;;5.20;3.80;;;13.20;99.90;;;;;;5034441;28;20828;-64
2021/05/06 08:34:22;;;;;;;4.33;3.40;;;13.70;99.90;;;;;;5024829;28;20260;-64
2021/05/06 08:36:48;;;;;;;4.77;3.60;;;14.10;99.90;;;;;;5018860;28;20258;-64
2021/05/06 08:39:14;;;;;;;10.97;6.33;;;13.80;99.90;;;;;;5033961;28;20245;-63
2021/05/06 08:41:41;;;;;;;3.83;3.53;;;13.20;99.90;;;;;;5025070;28;20180;-64
2021/05/06 08:44:09;;;;;;;3.83;3.10;;;13.70;99.90;;;;;;5017413;28;20198;-63
2021/05/06 08:46:39;;;;;;;3.83;2.97;;;14.50;99.90;;;;;;5014978;28;20548;-63
2021/05/06 08:49:09;;;;;;;4.73;3.37;;;14.60;99.90;;;;;;5027248;28;20200;-63
2021/05/06 08:51:37;;;;;;;4.83;3.23;;;14.10;99.90;;;;;;5027858;28;20187;-63
2021/05/06 08:54:03;;;;;;;5.57;3.73;;;14.00;99.90;;;;;;5029221;28;20554;-63
2021/05/06 08:56:30;;;;;;;4.47;3.80;;;14.30;99.90;;;;;;5027272;28;20191;-65
2021/05/06 08:58:56;;;;;;;6.63;3.30;;;15.00;99.90;;;;;;5028756;28;20183;-63
2021/05/06 09:01:21;;;;;;;3.87;2.90;;;15.90;99.90;;;;;;5020060;28;20179;-65
2021/05/06 09:03:47;;;;;;;3.93;3.63;;;17.00;99.90;;;;;;5020977;28;20271;-64
2021/05/06 09:06:14;;;;;;;6.23;3.77;;;16.70;99.90;;;;;;5020381;28;20250;-64
2021/05/06 09:08:57;;;;;;;5.90;4.03;;;15.90;99.90;;;;;;5020279;28;20196;-65
2021/05/06 09:11:37;;;;;;;3.87;3.47;;;16.00;99.90;;;;;;5031342;28;20632;-64
2021/05/06 09:14:10;;;;;;;5.23;3.53;;;16.80;99.90;;;;;;5034310;28;20225;-64
2021/05/06 09:16:39;;;;;;;3.20;2.90;;;17.10;99.90;;;;;;5015324;28;20218;-65
2021/05/06 09:19:09;;;;;;;3.80;3.03;;;16.30;99.90;;;;;;5018936;28;20230;-65
2021/05/06 09:21:37;;;;;;;4.40;3.27;;;16.20;99.90;;;;;;5015951;28;20168;-65
2021/05/06 09:24:12;;;;;;;4.33;3.70;;;16.00;99.90;;;;;;5020518;28;20180;-64
2021/05/06 09:26:40;;;;;;;10.73;6.20;;;16.40;99.90;;;;;;5015691;28;20653;-65
2021/05/06 09:29:09;;;;;;;5.10;3.10;;;16.80;99.90;;;;;;5023798;28;20219;-65
2021/05/06 09:31:38;;;;;;;3.33;3.07;;;16.90;99.90;;;;;;5013802;28;20161;-65
2021/05/06 09:34:06;;;;;;;5.47;3.00;;;17.30;99.90;;;;;;5013793;28;20183;-64
2021/05/06 09:39:00;;;;;;;4.00;2.90;;;17.80;99.90;;;;;;5307671;22;20301;-64
2021/05/06 09:41:34;;;;;;;3.50;3.20;;;17.10;99.90;;;;;;5013595;28;20176;-64
2021/05/06 09:44:13;;;;;;;5.00;2.80;;;16.40;99.90;;;;;;4998789;28;20176;-64
2021/05/06 09:46:42;;;;;;;4.97;3.00;;;16.60;99.90;;;;;;4994823;28;20180;-64
2021/05/06 09:49:12;;;;;;;3.10;2.80;;;16.80;99.90;;;;;;5003943;28;20195;-64
2021/05/06 09:51:45;;;;;;;5.57;2.70;;;17.30;99.90;;;;;;5011020;28;20180;-64
2021/05/06 09:54:25;;;;;;;4.93;2.97;;;17.50;99.90;;;;;;5001428;28;20223;-64
2021/05/06 09:57:06;;;;;;;3.53;3.07;;;16.50;99.90;;;;;;5011631;28;20726;-64
2021/05/06 09:59:36;;;;;;;3.97;3.40;;;15.20;99.90;;;;;;5014697;28;20619;-63
2021/05/06 10:02:09;;;;;;;4.40;3.43;;;15.10;99.90;;;;;;5008374;28;20180;-64
2021/05/06 10:04:37;;;;;;;3.70;3.40;;;15.70;99.90;;;;;;5003587;28;20239;-63
2021/05/06 10:07:22;;;;;;;4.13;3.70;;;15.30;99.90;;;;;;5010749;28;20207;-63
2021/05/06 10:09:51;;;;;;;4.07;3.53;;;15.40;99.90;;;;;;5000815;28;20197;-63
2021/05/06 10:12:18;;;;;;;4.27;3.17;;;15.00;99.90;;;;;;4994384;28;20254;-63
2021/05/06 10:14:45;;;;;;;3.00;2.80;;;15.00;99.90;;;;;;5004816;28;20185;-63
2021/05/06 10:17:14;;;;;;;5.07;3.73;;;15.80;99.90;;;;;;4999994;28;20296;-63
2021/05/06 10:19:40;;;;;;;2.90;2.60;;;16.40;99.90;;;;;;5003673;28;20180;-63
2021/05/06 10:22:08;;;;;;;5.23;3.30;;;16.90;99.90;;;;;;5005139;28;20176;-63
2021/05/06 10:24:34;;;;;;;3.10;2.33;;;17.70;99.90;;;;;;4994817;28;20204;-63
2021/05/06 10:27:01;;;;;;;3.07;2.77;;;18.30;99.90;;;;;;5005167;28;20204;-63
2021/05/06 10:29:27;;;;;;;6.45;2.80;;;19.00;99.90;;;;;;5010118;28;20342;-63
2021/05/06 10:31:54;;;;;;;2.67;2.42;;;19.20;99.90;;;;;;5002036;28;20264;-63
2021/05/06 10:34:19;;;;;;;2.60;2.10;;;19.50;99.90;;;;;;4993480;28;20184;-63
2021/05/06 10:36:47;;;;;;;3.60;2.33;;;20.10;99.90;;;;;;4996902;28;20179;-63
2021/05/06 10:39:13;;;;;;;3.90;2.60;;;20.40;98.10;;;;;;4999976;28;20235;-63
2021/05/06 10:41:39;;;;;;;4.20;2.83;;;20.40;97.10;;;;;;4993116;28;20197;-63
2021/05/06 10:44:10;;;;;;;4.53;2.70;;;20.50;97.30;;;;;;5011929;28;20179;-64
2021/05/06 10:46:56;;;;;;;3.83;2.93;;;20.30;95.80;;;;;;5012738;28;20188;-63
2021/05/06 10:49:23;;;;;;;3.10;2.50;;;20.10;96.00;;;;;;5008301;28;20734;-63
2021/05/06 10:51:59;;;;;;;4.47;2.33;;;19.70;94.80;;;;;;5006297;28;20235;-63
2021/05/06 10:54:47;;;;;;;3.50;2.70;;;19.10;95.30;;;;;;5004331;28;20209;-63
2021/05/06 10:57:18;;;;;;;4.33;3.07;;;18.60;96.00;;;;;;4999718;28;20192;-63
2021/05/06 10:59:46;;;;;;;3.50;3.10;;;18.10;96.70;;;;;;5006769;28;20654;-63
2021/05/06 11:02:32;;;;;;;4.53;3.17;;;18.50;97.80;;;;;;4993902;28;20182;-63
2021/05/06 11:05:22;;;;;;;4.27;3.50;;;18.80;96.60;;;;;;4997313;28;20181;-63
2021/05/06 11:08:02;;;;;;;4.07;2.80;;;18.30;96.10;;;;;;5002048;28;20302;-63
2021/05/06 11:10:28;;;;;;;5.47;2.50;;;18.80;95.50;;;;;;4994965;28;20239;-63
2021/05/06 11:12:58;;;;;;;2.70;2.50;;;19.20;93.70;;;;;;5000188;28;20218;-63
2021/05/06 11:15:29;;;;;;;2.90;2.60;;;19.20;95.10;;;;;;5012466;28;20168;-63
2021/05/06 11:17:56;;;;;;;3.67;3.00;;;19.20;95.30;;;;;;5004490;28;20236;-63
2021/05/06 11:20:24;;;;;;;5.53;3.40;;;19.00;94.90;;;;;;4992331;28;20649;-63
2021/05/06 11:22:59;;;;;;;5.63;3.23;;;19.00;95.10;;;;;;4998518;28;20195;-63
2021/05/06 11:28:01;;;;;;;3.20;2.90;;;18.50;93.10;;;;;;5005874;28;20359;-63
2021/05/06 11:30:36;;;;;;;3.63;3.17;;;18.50;95.30;;;;;;4992156;28;20207;-63
2021/05/06 11:33:20;;;;;;;4.53;3.10;;;18.60;94.20;;;;;;4997673;28;20652;-63
2021/05/06 11:36:11;;;;;;;5.50;3.40;;;18.50;93.40;;;;;;5011800;28;20176;-63
2021/05/06 11:38:37;;;;;;;8.27;3.20;;;18.10;93.50;;;;;;5000696;28;20577;-63
2021/05/06 11:41:07;;;;;;;3.37;3.10;;;17.80;93.90;;;;;;4991563;28;20177;-62
2021/05/06 11:43:34;;;;;;;4.40;4.03;;;17.40;92.90;;;;;;5001825;28;20176;-63
2021/05/06 11:46:14;;;;;;;3.73;3.00;;;16.80;93.00;;;;;;5010705;28;20183;-63
2021/05/06 11:48:42;;;;;;;6.40;3.57;;;16.40;93.50;;;;;;5001278;28;20218;-63
2021/05/06 11:51:10;;;;;;;3.53;3.23;;;15.50;93.80;;;;;;4991909;28;20212;-63
2021/05/06 11:53:38;;;;;;;4.27;3.40;;;15.00;99.90;;;;;;5003149;28;20566;-63
2021/05/06 11:56:14;;;;;;;6.93;3.70;;;14.50;99.90;;;;;;4996127;28;20185;-63
2021/05/06 11:58:41;;;;;;;4.67;4.10;;;14.00;99.90;;;;;;5002883;28;20810;-63
2021/05/06 12:01:09;;;;;;;4.53;4.07;;;13.40;99.90;;;;;;5011471;28;20861;-62
2021/05/06 12:03:37;;;;;;;4.87;3.63;;;13.00;99.90;;;;;;5001620;28;20195;-63
2021/05/06 12:06:03;;;;;;;4.87;3.70;;;13.20;99.90;;;;;;4992019;28;20189;-63
2021/05/06 12:08:32;;;;;;;3.63;3.10;;;13.60;99.90;;;;;;5000354;28;20227;-63
2021/05/06 12:11:04;;;;;;;3.50;3.20;;;14.00;99.90;;;;;;5011137;28;20194;-63
2021/05/06 12:13:32;;;;;;;3.57;3.17;;;14.30;99.90;;;;;;5003615;28;20677;-63
2021/05/06 12:16:13;;;;;;;4.20;3.17;;;14.80;99.90;;;;;;4991984;28;20729;-63
2021/05/06 12:18:39;;;;;;;9.60;3.07;;;15.00;99.90;;;;;;4999209;28;20250;-63
2021/05/06 12:21:06;;;;;;;7.83;3.63;;;15.30;99.90;;;;;;5011165;28;20180;-63
2021/05/06 12:23:32;;;;;;;3.87;3.30;;;15.50;99.90;;;;;;5004072;28;20184;-63
2021/05/06 12:25:58;;;;;;;3.00;2.80;;;16.10;99.90;;;;;;4991724;28;20193;-63
2021/05/06 12:28:24;;;;;;;4.40;3.10;;;16.60;99.90;;;;;;4996147;28;20207;-63
2021/05/06 12:30:58;;;;;;;2.90;2.70;;;16.80;99.90;;;;;;5010894;28;20184;-63
2021/05/06 12:33:31;;;;;;;3.20;2.90;;;16.70;99.90;;;;;;5006074;28;20188;-63
2021/05/06 12:35:57;;;;;;;4.00;2.63;;;16.90;99.90;;;;;;4991902;28;20217;-63
2021/05/06 12:38:22;;;;;;;2.90;2.70;;;17.40;99.90;;;;;;4995853;28;20239;-63
2021/05/06 12:40:49;;;;;;;3.33;3.03;;;17.50;99.90;;;;;;5010980;28;20227;-63
2021/05/06 12:43:34;;;;;;;3.67;2.60;;;17.80;99.90;;;;;;5008410;28;20185;-63
2021/05/06 12:46:04;;;;;;;3.30;3.00;;;17.80;97.10;;;;;;4991621;28;20669;-63
2021/05/06 12:48:45;;;;;;;4.30;3.17;;;17.60;97.70;;;;;;4994888;28;20192;-63
2021/05/06 12:51:14;;;;;;;3.20;2.90;;;17.60;97.60;;;;;;4991416;28;20295;-63
2021/05/06 12:54:01;;;;;;;3.10;2.80;;;17.40;97.00;;;;;;5000453;28;20216;-63
2021/05/06 12:56:37;;;;;;;3.03;2.80;;;17.30;96.90;;;;;;5002619;28;20181;-63
2021/05/06 12:59:37;;;;;;;3.10;2.80;;;17.40;97.80;;;;;;5002634;28;20211;-63
2021/05/06 13:02:09;;;;;;;4.47;3.00;;;17.90;96.50;;;;;;4973091;28;20181;-63
2021/05/06 13:04:51;;;;;;;4.27;2.93;;;17.90;97.00;;;;;;4995937;28;20231;-63
2021/05/06 13:07:19;;;;;;;3.60;2.90;;;17.90;95.60;;;;;;4995293;28;20197;-65
2021/05/06 13:09:47;;;;;;;3.90;2.57;;;17.30;94.90;;;;;;5007188;28;20230;-63
2021/05/06 13:12:25;;;;;;;6.13;3.70;;;17.00;96.10;;;;;;5014662;28;20176;-63
2021/05/06 13:14:53;;;;;;;2.93;2.63;;;17.20;97.00;;;;;;5001475;28;20184;-63
2021/05/06 13:17:37;;;;;;;3.13;2.83;;;17.20;96.30;;;;;;4995002;28;20250;-63
2021/05/06 13:20:18;;;;;;;5.50;3.03;;;17.20;95.20;;;;;;5008263;28;20618;-64
2021/05/06 13:23:14;;;;;;;6.00;3.27;;;17.30;96.80;;;;;;5014384;28;20190;-64
2021/05/06 13:25:43;;;;;;;4.63;3.03;;;17.50;96.60;;;;;;4996262;28;20195;-63
2021/05/06 13:28:10;;;;;;;6.40;3.30;;;17.60;95.40;;;;;;4994729;28;20597;-63
2021/05/06 13:30:36;;;;;;;5.33;3.30;;;17.50;96.20;;;;;;5010208;28;20609;-64
2021/05/06 13:33:20;;;;;;;3.03;2.73;;;17.30;95.10;;;;;;5014029;28;20183;-64
2021/05/06 13:36:06;;;;;;;7.37;3.47;;;16.80;95.00;;;;;;5008490;28;20217;-63
2021/05/06 13:38:59;;;;;;;4.40;3.23;;;16.40;95.30;;;;;;4994467;28;20215;-63
2021/05/06 13:41:28;;;;;;;3.60;2.97;;;16.20;96.20;;;;;;4994411;28;20562;-62
2021/05/06 13:43:56;;;;;;;3.23;3.00;;;16.10;97.00;;;;;;4995518;28;20642;-63
2021/05/06 13:46:23;;;;;;;3.00;2.70;;;15.70;96.10;;;;;;5003998;28;20231;-63
2021/05/06 13:48:50;;;;;;;3.63;3.17;;;15.40;96.80;;;;;;4993823;28;20216;-63
2021/05/06 13:51:16;;;;;;;4.93;3.30;;;15.20;97.60;;;;;;5013404;28;20311;-63
2021/05/06 13:53:46;;;;;;;3.47;2.87;;;15.30;97.20;;;;;;5013851;28;20200;-63
2021/05/06 13:56:12;;;;;;;6.57;3.70;;;15.40;98.40;;;;;;5009474;28;20184;-63
2021/05/06 13:58:39;;;;;;;4.60;3.47;;;15.30;97.60;;;;;;4994202;28;20219;-63
2021/05/06 14:01:06;;;;;;;4.27;3.10;;;15.20;97.50;;;;;;4997881;28;20184;-63
2021/05/06 14:03:32;;;;;;;3.73;3.10;;;15.30;97.10;;;;;;5000341;28;20180;-63
2021/05/06 14:05:59;;;;;;;8.70;4.50;;;15.20;97.90;;;;;;5013566;28;20638;-64
2021/05/06 14:08:26;;;;;;;4.07;3.60;;;14.90;99.40;;;;;;5008107;28;20613;-63
2021/05/06 14:10:52;;;;;;;4.67;3.90;;;14.40;99.90;;;;;;4993276;28;20665;-63
2021/05/06 14:13:18;;;;;;;3.77;3.40;;;13.80;99.90;;;;;;4997381;28;20176;-63
2021/05/06 14:15:47;;;;;;;3.83;3.40;;;13.50;99.90;;;;;;5010364;28;20246;-63
2021/05/06 14:18:13;;;;;;;7.10;3.73;;;13.30;99.90;;;;;;5010685;28;20235;-63
2021/05/06 14:20:40;;;;;;;4.23;3.53;;;13.20;99.90;;;;;;4993256;28;20185;-63
2021/05/06 14:23:10;;;;;;;5.47;3.57;;;12.90;99.90;;;;;;5010352;28;20553;-63
2021/05/06 14:25:37;;;;;;;5.20;3.73;;;12.80;99.90;;;;;;5013516;28;20231;-63
2021/05/06 14:28:04;;;;;;;4.10;3.70;;;13.00;99.90;;;;;;4996868;28;20324;-63
2021/05/06 14:30:30;;;;;;;3.60;3.30;;;13.10;99.90;;;;;;5012864;28;20219;-63
2021/05/06 14:32:56;;;;;;;3.70;3.40;;;13.20;99.90;;;;;;4998112;28;20176;-63
2021/05/06 14:35:22;;;;;;;4.10;3.80;;;13.40;99.90;;;;;;4993404;28;20173;-63
2021/05/06 14:37:48;;;;;;;4.40;4.00;;;13.30;99.90;;;;;;5005996;28;20603;-63
2021/05/06 14:40:14;;;;;;;4.33;4.00;;;13.20;99.90;;;;;;5012554;28;20176;-63
2021/05/06 14:42:39;;;;;;;5.23;3.57;;;13.10;99.90;;;;;;5000740;28;20328;-63
2021/05/06 14:45:06;;;;;;;4.30;3.70;;;12.80;99.90;;;;;;4993102;28;20224;-62
2021/05/06 14:47:31;;;;;;;4.93;4.17;;;12.40;99.90;;;;;;5002919;28;20208;-63
2021/05/06 14:49:58;;;;;;;4.73;4.20;;;12.40;99.90;;;;;;5012142;28;20215;-63
2021/05/06 14:52:23;;;;;;;12.40;3.83;;;12.40;99.90;;;;;;5004402;28;20536;-63
2021/05/06 14:54:50;;;;;;;3.33;3.10;;;12.30;99.90;;;;;;4992970;28;20197;-63
2021/05/06 14:57:16;;;;;;;4.30;3.50;;;12.00;99.90;;;;;;4999298;28;20196;-63
2021/05/06 14:59:41;;;;;;;3.70;3.40;;;11.50;99.90;;;;;;5001778;28;20203;-63
2021/05/06 15:02:08;;;;;;;5.30;4.33;;;11.40;99.90;;;;;;4998107;28;20191;-64
2021/05/06 15:04:35;;;;;;;4.60;4.20;;;11.40;99.90;;;;;;5012579;28;20540;-64
2021/05/06 15:07:00;;;;;;;9.70;4.13;;;11.50;99.90;;;;;;5007662;28;20200;-64
2021/05/06 15:09:26;;;;;;;4.40;4.00;;;11.40;99.90;;;;;;4992743;28;20223;-64
2021/05/06 15:11:52;;;;;;;4.70;4.30;;;11.50;99.90;;;;;;4993538;28;20259;-64
2021/05/06 15:14:18;;;;;;;4.50;3.90;;;11.50;99.90;;;;;;4992306;28;20180;-64
2021/05/06 15:16:44;;;;;;;4.13;3.67;;;11.60;99.90;;;;;;4993391;28;20642;-64
2021/05/06 15:19:09;;;;;;;4.90;4.03;;;11.60;99.90;;;;;;5012220;28;20180;-63
2021/05/06 15:21:35;;;;;;;4.00;3.70;;;11.60;99.90;;;;;;5012110;28;20267;-64
2021/05/06 15:24:01;;;;;;;6.20;4.27;;;11.50;99.90;;;;;;4993156;28;20192;-64
2021/05/06 15:26:26;;;;;;;4.37;3.97;;;11.40;99.90;;;;;;4992688;28;20638;-64
2021/05/06 15:28:52;;;;;;;4.40;4.00;;;11.50;99.90;;;;;;5009176;28;20295;-64
2021/05/06 15:31:19;;;;;;;9.27;4.13;;;11.70;99.90;;;;;;5012089;28;20176;-64
2021/05/06 15:33:44;;;;;;;4.53;4.17;;;11.50;99.90;;;;;;4996422;28;20177;-64
2021/05/06 15:36:12;;;;;;;6.33;4.20;;;11.20;99.90;;;;;;4992463;28;20169;-64
2021/05/06 15:38:38;;;;;;;5.87;3.93;;;10.90;99.90;;;;;;5030020;22;20715;-61
2021/05/06 15:41:04;;;;;;;6.27;4.03;;;10.90;99.90;;;;;;5011496;28;20544;-61
2021/05/06 15:43:29;;;;;;;4.30;3.90;;;11.00;99.90;;;;;;5011723;28;20268;-63
2021/05/06 15:45:56;;;;;;;5.87;4.47;;;10.90;99.90;;;;;;5011042;28;20168;-63
2021/05/06 15:48:22;;;;;;;6.53;4.47;;;11.00;99.90;;;;;;5011437;28;20623;-65
2021/05/06 15:50:47;;;;;;;4.70;4.30;;;11.00;99.90;;;;;;5010601;28;20259;-66
2021/05/06 15:53:13;;;;;;;5.27;4.77;;;11.10;99.90;;;;;;5011009;28;20622;-63
2021/05/06 15:55:39;;;;;;;9.47;5.03;;;11.10;99.90;;;;;;5011731;28;20169;-64
2021/05/06 15:58:06;;;;;;;4.67;4.03;;;11.20;99.90;;;;;;5003692;28;20247;-64
2021/05/06 16:00:33;;;;;;;4.33;3.93;;;11.30;99.90;;;;;;5003157;28;20208;-63
2021/05/06 16:03:02;;;;;;;5.40;4.87;;;11.50;99.90;;;;;;5005194;28;20607;-65
2021/05/06 16:05:29;;;;;;;9.53;4.60;;;11.30;99.90;;;;;;4992267;28;20517;-66
2021/05/06 16:07:56;;;;;;;8.73;4.60;;;10.90;99.90;;;;;;4996825;28;20220;-65
2021/05/06 16:10:23;;;;;;;6.73;4.67;;;10.90;99.90;;;;;;5011391;28;20291;-65
2021/05/06 16:12:49;;;;;;;4.77;4.37;;;10.70;99.90;;;;;;5007626;28;20189;-65
2021/05/06 16:15:16;;;;;;;5.13;4.70;;;10.40;99.90;;;;;;4992148;28;20173;-64
2021/05/06 16:17:42;;;;;;;7.30;5.03;;;10.30;99.90;;;;;;4993955;28;20194;-65
2021/05/06 16:20:21;;;;;;;4.80;4.30;;;10.20;99.90;;;;;;5010968;28;20639;-65
2021/05/06 16:22:47;;;;;;;7.77;5.13;;;10.30;99.90;;;;;;5009071;28;20231;-65
2021/05/06 16:25:15;;;;;;;5.90;5.23;;;10.30;99.90;;;;;;4991825;28;20216;-65